createdAt,value
2023-03-26T00:02:26.361Z,6.83
2023-03-26T00:04:54.775Z,6.76
2023-03-26T00:07:23.022Z,6.77
2023-03-26T00:09:51.433Z,6.76
2023-03-26T00:12:19.952Z,6.69
2023-03-26T00:14:48.003Z,6.64
2023-03-26T00:17:16.244Z,6.55
2023-03-26T00:19:45.601Z,6.52
2023-03-26T00:22:14.456Z,6.50
2023-03-26T00:24:46.016Z,6.45
2023-03-26T00:27:14.816Z,6.42
2023-03-26T00:29:43.295Z,6.40
2023-03-26T00:32:11.665Z,6.37
2023-03-26T00:34:41.580Z,6.37
2023-03-26T00:37:14.474Z,6.34
2023-03-26T00:39:43.085Z,6.33
2023-03-26T00:42:15.045Z,6.33
2023-03-26T00:44:43.403Z,6.32
2023-03-26T00:47:13.260Z,6.33
2023-03-26T00:49:41.299Z,6.34
2023-03-26T00:52:10.144Z,6.31
2023-03-26T00:54:38.258Z,6.28
2023-03-26T00:57:07.150Z,6.26
2023-03-26T00:59:35.986Z,6.27
2023-03-26T01:02:04.736Z,6.29
2023-03-26T01:04:35.404Z,6.29
2023-03-26T01:07:13.410Z,6.28
2023-03-26T01:09:50.597Z,6.27
2023-03-26T01:12:22.635Z,6.28
2023-03-26T01:14:53.257Z,6.27
2023-03-26T01:17:23.549Z,6.25
2023-03-26T01:20:05.923Z,6.22
2023-03-26T01:22:36.804Z,6.13
2023-03-26T01:25:07.365Z,6.09
2023-03-26T01:27:39.167Z,6.08
2023-03-26T01:30:41.758Z,6.07
2023-03-26T01:33:22.192Z,6.07
2023-03-26T01:36:11.624Z,6.09
2023-03-26T01:38:54.960Z,6.03
2023-03-26T01:41:32.791Z,5.97
2023-03-26T01:44:11.711Z,5.94
2023-03-26T01:46:40.821Z,5.91
2023-03-26T01:49:13.810Z,5.88
2023-03-26T01:51:43.119Z,5.92
2023-03-26T01:54:19.632Z,5.93
2023-03-26T01:57:02.628Z,5.97
2023-03-26T01:59:56.873Z,5.97
2023-03-26T02:02:38.923Z,5.92
2023-03-26T02:05:26.716Z,5.89
2023-03-26T02:08:09.841Z,5.90
2023-03-26T02:10:48.154Z,5.90
2023-03-26T02:13:17.261Z,5.85
2023-03-26T02:16:19.119Z,5.82
2023-03-26T02:18:55.741Z,5.77
2023-03-26T02:21:26.296Z,5.75
2023-03-26T02:24:03.868Z,5.76
2023-03-26T02:26:37.843Z,5.77
2023-03-26T02:29:20.529Z,5.70
2023-03-26T02:31:49.905Z,5.65
2023-03-26T02:34:18.256Z,5.62
2023-03-26T02:36:54.017Z,5.60
2023-03-26T02:39:22.259Z,5.60
2023-03-26T02:41:55.969Z,5.62
2023-03-26T02:44:24.587Z,5.54
2023-03-26T02:47:13.218Z,5.54
2023-03-26T02:49:47.646Z,5.52
2023-03-26T02:52:36.246Z,5.52
2023-03-26T02:55:05.081Z,5.55
2023-03-26T02:57:34.338Z,5.57
2023-03-26T03:00:14.741Z,5.56
2023-03-26T03:02:50.478Z,5.49
2023-03-26T03:05:55.818Z,5.43
2023-03-26T03:08:30.496Z,5.42
2023-03-26T03:11:14.848Z,5.43
2023-03-26T03:13:51.394Z,5.48
2023-03-26T03:16:37.510Z,5.54
2023-03-26T03:19:11.501Z,5.54
2023-03-26T03:21:42.082Z,5.48
2023-03-26T03:24:11.868Z,5.43
2023-03-26T03:26:46.369Z,5.42
2023-03-26T03:29:22.430Z,5.40
2023-03-26T03:31:50.835Z,5.43
2023-03-26T03:34:32.050Z,5.43
2023-03-26T03:37:00.380Z,5.41
2023-03-26T03:39:36.754Z,5.41
2023-03-26T03:42:05.470Z,5.40
2023-03-26T03:44:34.019Z,5.40
2023-03-26T03:47:02.647Z,5.36
2023-03-26T03:49:31.189Z,5.34
2023-03-26T03:51:59.628Z,5.33
2023-03-26T03:54:33.714Z,5.34
2023-03-26T03:57:24.072Z,5.35
2023-03-26T04:00:02.530Z,5.33
2023-03-26T04:02:46.365Z,5.26
2023-03-26T04:05:14.983Z,5.20
2023-03-26T04:07:47.350Z,5.12
2023-03-26T04:10:34.140Z,5.04
2023-03-26T04:13:18.168Z,5.03
2023-03-26T04:16:04.783Z,5.01
2023-03-26T04:18:33.271Z,5.01
2023-03-26T04:21:08.014Z,5.01
2023-03-26T04:23:36.801Z,4.97
2023-03-26T04:26:19.844Z,4.93
2023-03-26T04:29:06.508Z,4.89
2023-03-26T04:31:36.471Z,4.92
2023-03-26T04:34:14.378Z,4.96
2023-03-26T04:37:05.436Z,5.00
2023-03-26T04:39:39.267Z,5.01
2023-03-26T04:42:28.781Z,5.02
2023-03-26T04:45:09.347Z,5.01
2023-03-26T04:47:39.258Z,4.97
2023-03-26T04:50:10.550Z,5.01
2023-03-26T04:52:39.858Z,5.01
2023-03-26T04:55:51.333Z,5.02
2023-03-26T04:58:33.324Z,5.01
2023-03-26T05:01:10.248Z,5.08
2023-03-26T05:03:42.041Z,5.13
2023-03-26T05:06:13.961Z,5.17
2023-03-26T05:08:42.568Z,5.19
2023-03-26T05:11:14.604Z,5.23
2023-03-26T05:13:43.125Z,5.25
2023-03-26T05:16:14.198Z,5.26
2023-03-26T05:18:51.829Z,5.28
2023-03-26T05:21:21.231Z,5.32
2023-03-26T05:23:49.548Z,5.36
2023-03-26T05:26:19.941Z,5.44
2023-03-26T05:28:48.932Z,5.49
2023-03-26T05:31:31.218Z,5.57
2023-03-26T05:34:00.820Z,5.64
2023-03-26T05:36:30.053Z,5.72
2023-03-26T05:39:07.137Z,5.74
2023-03-26T05:41:50.174Z,6.29
2023-03-26T05:44:19.600Z,7.80
2023-03-26T05:46:48.048Z,9.35
2023-03-26T05:49:21.552Z,10.35
2023-03-26T05:51:49.953Z,11.11
2023-03-26T05:54:30.619Z,11.44
2023-03-26T05:57:18.838Z,12.01
2023-03-26T06:00:15.250Z,12.40
2023-03-26T06:02:47.440Z,12.42
2023-03-26T06:05:37.574Z,11.41
2023-03-26T06:08:34.848Z,11.10
2023-03-26T06:11:08.218Z,11.18
2023-03-26T06:13:40.267Z,10.88
2023-03-26T06:16:10.088Z,11.02
2023-03-26T06:19:17.651Z,11.36
2023-03-26T06:22:05.838Z,11.62
2023-03-26T06:24:49.258Z,11.64
2023-03-26T06:27:47.232Z,11.16
2023-03-26T06:30:41.569Z,11.00
2023-03-26T06:33:22.743Z,10.67
2023-03-26T06:35:52.694Z,10.90
2023-03-26T06:38:21.000Z,10.96
2023-03-26T06:40:49.220Z,10.86
2023-03-26T06:43:23.396Z,10.57
2023-03-26T06:45:52.498Z,10.92
2023-03-26T06:48:40.738Z,10.90
2023-03-26T06:51:15.978Z,10.82
2023-03-26T06:54:10.479Z,10.67
2023-03-26T06:56:49.963Z,10.89
2023-03-26T06:59:37.275Z,11.15
2023-03-26T07:02:24.681Z,10.96
2023-03-26T07:05:12.301Z,10.76
2023-03-26T07:07:59.726Z,11.09
2023-03-26T07:10:46.847Z,11.27
2023-03-26T07:13:15.759Z,11.36
2023-03-26T07:16:02.609Z,11.22
2023-03-26T07:18:51.734Z,11.34
2023-03-26T07:21:23.361Z,11.30
2023-03-26T07:23:53.602Z,11.47
2023-03-26T07:27:03.782Z,11.82
2023-03-26T07:29:46.279Z,11.80
2023-03-26T07:32:48.389Z,11.95
2023-03-26T07:35:39.136Z,11.61
2023-03-26T07:39:02.279Z,11.38
2023-03-26T07:41:51.692Z,11.03
2023-03-26T07:44:56.051Z,10.50
2023-03-26T07:48:00.748Z,10.64
2023-03-26T07:50:56.703Z,10.65
2023-03-26T07:53:40.393Z,10.61
2023-03-26T07:56:39.998Z,10.48
2023-03-26T07:59:54.465Z,10.03
2023-03-26T08:03:05.733Z,9.89
2023-03-26T08:06:09.721Z,9.83
2023-03-26T08:09:16.776Z,9.94
2023-03-26T08:12:30.113Z,10.18
2023-03-26T08:15:05.933Z,10.14
2023-03-26T08:17:42.935Z,10.24
2023-03-26T08:20:31.163Z,10.46
2023-03-26T08:23:32.876Z,10.82
2023-03-26T08:26:02.728Z,11.08
2023-03-26T08:28:42.696Z,11.19
2023-03-26T08:31:14.074Z,10.94
2023-03-26T08:33:43.708Z,10.94
2023-03-26T08:36:11.847Z,11.15
2023-03-26T08:38:40.159Z,11.13
2023-03-26T08:41:11.491Z,10.94
2023-03-26T08:43:58.638Z,11.20
2023-03-26T08:47:06.318Z,11.38
2023-03-26T08:50:02.825Z,11.57
2023-03-26T08:52:41.942Z,11.57
2023-03-26T08:55:29.311Z,11.44
2023-03-26T08:58:13.130Z,11.62
2023-03-26T09:00:53.913Z,11.76
2023-03-26T09:03:56.480Z,12.39
2023-03-26T09:06:35.688Z,12.91
2023-03-26T09:09:39.665Z,13.02
2023-03-26T09:12:32.637Z,13.05
2023-03-26T09:15:20.077Z,13.02
2023-03-26T09:18:12.945Z,13.24
2023-03-26T09:21:09.261Z,13.39
2023-03-26T09:23:54.253Z,13.45
2023-03-26T09:26:28.060Z,13.82
2023-03-26T09:29:30.445Z,14.23
2023-03-26T09:32:31.960Z,13.98
2023-03-26T09:35:43.220Z,13.68
2023-03-26T09:38:24.540Z,14.04
2023-03-26T09:41:02.405Z,13.87
2023-03-26T09:43:42.512Z,13.67
2023-03-26T09:46:37.186Z,13.46
2023-03-26T09:49:30.551Z,13.50
2023-03-26T09:52:24.982Z,13.16
2023-03-26T09:55:30.858Z,12.65
2023-03-26T09:58:20.708Z,12.71
2023-03-26T10:01:06.016Z,12.39
2023-03-26T10:04:08.566Z,12.15
2023-03-26T10:06:49.106Z,12.13
2023-03-26T10:09:34.521Z,12.09
2023-03-26T10:12:38.349Z,12.03
2023-03-26T10:15:31.297Z,12.29
2023-03-26T10:18:27.586Z,12.12
2023-03-26T10:21:09.371Z,12.09
2023-03-26T10:23:48.524Z,11.96
2023-03-26T10:26:23.021Z,12.01
2023-03-26T10:29:27.086Z,12.08
2023-03-26T10:32:16.381Z,12.04
2023-03-26T10:35:19.486Z,12.14
2023-03-26T10:37:54.540Z,11.92
2023-03-26T10:40:26.423Z,11.77
2023-03-26T10:43:16.818Z,11.70
2023-03-26T10:45:48.014Z,11.79
2023-03-26T10:48:56.734Z,11.70
2023-03-26T10:51:44.724Z,11.80
2023-03-26T10:54:34.730Z,12.04
2023-03-26T10:57:11.983Z,11.91
2023-03-26T10:59:40.310Z,11.60
2023-03-26T11:02:30.236Z,11.56
2023-03-26T11:05:22.646Z,11.79
2023-03-26T11:07:57.519Z,11.92
2023-03-26T11:11:03.577Z,11.99
2023-03-26T11:13:52.893Z,12.03
2023-03-26T11:16:21.183Z,12.19
2023-03-26T11:19:05.102Z,12.17
2023-03-26T11:21:46.041Z,12.03
2023-03-26T11:24:36.902Z,11.92
2023-03-26T11:27:23.718Z,11.96
2023-03-26T11:29:59.058Z,12.16
2023-03-26T11:32:54.618Z,12.11
2023-03-26T11:35:39.494Z,12.42
2023-03-26T11:38:21.861Z,12.46
2023-03-26T11:40:55.415Z,12.34
2023-03-26T11:43:49.660Z,12.34
2023-03-26T11:46:23.205Z,12.54
2023-03-26T11:48:57.741Z,12.67
2023-03-26T11:51:36.275Z,12.76
2023-03-26T11:54:08.073Z,12.71
2023-03-26T11:57:05.776Z,12.80
2023-03-26T11:59:56.534Z,12.68
2023-03-26T12:02:32.651Z,12.86
2023-03-26T12:05:21.094Z,12.84
2023-03-26T12:07:54.424Z,12.91
2023-03-26T12:10:28.558Z,13.03
2023-03-26T12:13:01.099Z,13.05
2023-03-26T12:15:32.111Z,13.10
2023-03-26T12:18:23.553Z,13.25
2023-03-26T12:21:15.616Z,13.35
2023-03-26T12:23:57.847Z,13.55
2023-03-26T12:26:35.144Z,13.50
2023-03-26T12:29:14.652Z,13.53
2023-03-26T12:31:45.942Z,13.18
2023-03-26T12:34:22.420Z,13.17
2023-03-26T12:36:56.844Z,13.10
2023-03-26T12:40:06.754Z,13.00
2023-03-26T12:44:46.778Z,13.05
2023-03-26T12:45:31.007Z,13.10
2023-03-26T12:48:03.702Z,13.06
2023-03-26T12:50:47.811Z,12.98
2023-03-26T12:53:29.395Z,12.95
2023-03-26T12:56:36.520Z,13.25
2023-03-26T12:59:23.791Z,13.25
2023-03-26T13:02:19.362Z,12.97
2023-03-26T13:05:05.799Z,12.93
2023-03-26T13:07:53.661Z,13.07
2023-03-26T13:10:25.121Z,13.13
2023-03-26T13:13:18.064Z,12.80
2023-03-26T13:15:58.498Z,12.53
2023-03-26T13:18:52.101Z,12.62
2023-03-26T13:21:42.409Z,12.56
2023-03-26T13:24:23.729Z,12.50
2023-03-26T13:27:16.957Z,12.54
2023-03-26T13:30:15.230Z,12.68
2023-03-26T13:32:46.637Z,12.69
2023-03-26T13:35:43.327Z,12.72
2023-03-26T13:38:34.742Z,12.81
2023-03-26T13:41:24.661Z,12.85
2023-03-26T13:44:23.553Z,12.88
2023-03-26T13:47:18.416Z,12.88
2023-03-26T13:50:19.714Z,12.91
2023-03-26T13:52:55.329Z,12.93
2023-03-26T13:55:37.551Z,12.83
2023-03-26T13:58:41.356Z,12.81
2023-03-26T14:01:49.832Z,12.78
2023-03-26T14:04:33.493Z,12.73
2023-03-26T14:07:06.608Z,12.48
2023-03-26T14:09:48.705Z,12.28
2023-03-26T14:12:38.484Z,11.95
2023-03-26T14:15:33.019Z,11.70
2023-03-26T14:18:14.747Z,11.36
2023-03-26T14:20:56.888Z,11.18
2023-03-26T14:23:42.191Z,10.90
2023-03-26T14:26:25.480Z,10.96
2023-03-26T14:29:23.965Z,10.83
2023-03-26T14:32:16.499Z,10.65
2023-03-26T14:35:05.174Z,10.44
2023-03-26T14:38:08.192Z,10.48
2023-03-26T14:40:48.128Z,10.41
2023-03-26T14:43:47.421Z,10.33
2023-03-26T14:46:36.182Z,10.36
2023-03-26T14:49:35.079Z,10.58
2023-03-26T14:52:14.106Z,10.72
2023-03-26T14:54:45.922Z,10.76
2023-03-26T14:57:17.584Z,10.72
2023-03-26T14:59:51.857Z,10.72
2023-03-26T15:02:23.488Z,10.59
2023-03-26T15:04:55.162Z,10.54
2023-03-26T15:07:57.540Z,10.46
2023-03-26T15:10:43.738Z,10.37
2023-03-26T15:13:30.451Z,10.35
2023-03-26T15:16:28.982Z,10.26
2023-03-26T15:19:09.178Z,10.19
2023-03-26T15:22:33.069Z,10.07
2023-03-26T15:25:45.703Z,10.09
2023-03-26T15:28:32.197Z,10.09
2023-03-26T15:31:18.748Z,10.08
2023-03-26T15:33:53.133Z,10.17
2023-03-26T15:36:41.274Z,10.23
2023-03-26T15:39:27.834Z,10.28
2023-03-26T15:42:29.754Z,10.28
2023-03-26T15:45:17.686Z,10.28
2023-03-26T15:48:14.136Z,10.26
2023-03-26T15:51:16.498Z,10.29
2023-03-26T15:54:22.781Z,10.26
2023-03-26T15:56:58.145Z,10.26
2023-03-26T15:59:37.756Z,10.26
2023-03-26T16:02:29.916Z,10.23
2023-03-26T16:05:34.644Z,10.22
2023-03-26T16:08:15.092Z,10.22
2023-03-26T16:10:56.203Z,10.20
2023-03-26T16:13:36.743Z,10.14
2023-03-26T16:16:04.856Z,10.06
2023-03-26T16:18:41.148Z,9.96
2023-03-26T16:21:31.371Z,9.88
2023-03-26T16:24:03.277Z,9.79
2023-03-26T16:26:31.664Z,9.72
2023-03-26T16:29:03.115Z,9.65
2023-03-26T16:31:37.845Z,9.61
2023-03-26T16:34:10.906Z,9.57
2023-03-26T16:36:43.140Z,9.53
2023-03-26T16:39:17.321Z,9.50
2023-03-26T16:41:47.237Z,9.45
2023-03-26T16:44:28.371Z,9.39
2023-03-26T16:47:00.523Z,9.34
2023-03-26T16:50:13.880Z,9.32
2023-03-26T16:53:20.860Z,9.22
2023-03-26T16:56:01.978Z,9.11
2023-03-26T16:58:56.385Z,9.06
2023-03-26T17:01:27.389Z,9.10
2023-03-26T17:04:19.154Z,9.07
2023-03-26T17:06:53.830Z,9.07
2023-03-26T17:09:58.619Z,9.07
2023-03-26T17:12:59.304Z,9.08
2023-03-26T17:15:34.571Z,9.10
2023-03-26T17:18:27.508Z,9.06
2023-03-26T17:21:01.620Z,9.09
2023-03-26T17:23:29.839Z,9.07
2023-03-26T17:26:02.527Z,9.05
2023-03-26T17:28:49.410Z,9.07
2023-03-26T17:31:41.945Z,9.10
2023-03-26T17:34:28.953Z,9.08
2023-03-26T17:36:58.625Z,9.05
2023-03-26T17:39:39.003Z,9.04
2023-03-26T17:42:16.289Z,9.02
2023-03-26T17:44:49.310Z,9.00
2023-03-26T17:47:27.136Z,8.95
2023-03-26T17:50:14.640Z,8.89
2023-03-26T17:52:55.931Z,8.81
2023-03-26T17:55:37.899Z,8.71
2023-03-26T17:58:17.579Z,8.63
2023-03-26T18:00:50.269Z,8.49
2023-03-26T18:03:21.746Z,8.35
2023-03-26T18:05:55.983Z,8.16
2023-03-26T18:08:42.064Z,8.10
2023-03-26T18:11:27.806Z,8.07
2023-03-26T18:14:17.896Z,7.95
2023-03-26T18:16:51.622Z,7.75
2023-03-26T18:19:22.669Z,7.70
2023-03-26T18:21:57.277Z,7.60
2023-03-26T18:24:28.722Z,7.52
2023-03-26T18:27:05.707Z,7.41
2023-03-26T18:29:35.916Z,7.31
2023-03-26T18:32:23.709Z,7.23
2023-03-26T18:35:14.680Z,7.21
2023-03-26T18:37:46.119Z,7.10
2023-03-26T18:40:21.101Z,7.06
2023-03-26T18:42:55.382Z,7.00
2023-03-26T18:45:27.964Z,6.92
2023-03-26T18:48:04.330Z,6.91
2023-03-26T18:50:39.928Z,6.87
2023-03-26T18:53:21.628Z,6.84
2023-03-26T18:55:51.613Z,6.86
2023-03-26T18:58:30.336Z,6.82
2023-03-26T19:01:01.694Z,6.82
2023-03-26T19:03:35.762Z,6.81
2023-03-26T19:06:08.423Z,6.75
2023-03-26T19:08:41.848Z,6.68
2023-03-26T19:11:11.836Z,6.59
2023-03-26T19:13:42.007Z,6.48
2023-03-26T19:16:28.163Z,6.46
2023-03-26T19:18:59.446Z,6.44
2023-03-26T19:21:27.786Z,6.39
2023-03-26T19:23:56.763Z,6.26
2023-03-26T19:26:25.195Z,6.22
2023-03-26T19:28:56.180Z,6.18
2023-03-26T19:31:33.899Z,6.15
2023-03-26T19:34:13.940Z,6.09
2023-03-26T19:37:01.082Z,6.09
2023-03-26T19:39:41.787Z,6.12
2023-03-26T19:42:16.441Z,6.15
2023-03-26T19:44:45.617Z,6.08
2023-03-26T19:47:31.978Z,6.10
2023-03-26T19:50:19.393Z,6.13
2023-03-26T19:52:47.827Z,6.13
2023-03-26T19:55:21.915Z,6.15
2023-03-26T19:57:50.243Z,6.15
2023-03-26T20:00:19.188Z,6.18
2023-03-26T20:02:49.035Z,6.20
2023-03-26T20:05:25.329Z,6.20
2023-03-26T20:07:57.716Z,6.21
2023-03-26T20:10:27.278Z,6.26
2023-03-26T20:12:55.809Z,6.29
2023-03-26T20:15:27.265Z,6.30
2023-03-26T20:17:56.037Z,6.29
2023-03-26T20:20:27.271Z,6.31
2023-03-26T20:22:55.668Z,6.31
2023-03-26T20:25:30.857Z,6.33
2023-03-26T20:27:59.815Z,6.29
2023-03-26T20:30:37.442Z,6.29
2023-03-26T20:33:12.605Z,6.30
2023-03-26T20:35:42.896Z,6.26
2023-03-26T20:38:11.324Z,6.25
2023-03-26T20:40:40.003Z,6.21
2023-03-26T20:43:13.167Z,6.18
2023-03-26T20:45:41.984Z,6.15
2023-03-26T20:48:10.670Z,6.11
2023-03-26T20:51:01.600Z,6.10
2023-03-26T20:53:30.677Z,6.09
2023-03-26T20:55:58.865Z,6.07
2023-03-26T20:58:31.376Z,6.07
2023-03-26T21:01:01.741Z,6.08
2023-03-26T21:03:30.256Z,6.07
2023-03-26T21:06:03.326Z,6.08
2023-03-26T21:08:35.385Z,6.10
2023-03-26T21:11:08.422Z,6.11
2023-03-26T21:13:46.926Z,6.14
2023-03-26T21:16:15.620Z,6.17
2023-03-26T21:18:44.347Z,6.20
2023-03-26T21:21:39.996Z,6.23
2023-03-26T21:24:14.866Z,6.20
2023-03-26T21:26:48.637Z,6.17
2023-03-26T21:29:18.053Z,6.15
2023-03-26T21:31:46.884Z,6.13
2023-03-26T21:34:17.208Z,6.13
2023-03-26T21:36:46.785Z,6.10
2023-03-26T21:39:15.881Z,6.06
2023-03-26T21:42:04.977Z,6.02
2023-03-26T21:44:35.774Z,6.07
2023-03-26T21:47:05.853Z,6.11
2023-03-26T21:49:35.865Z,6.11
2023-03-26T21:52:05.067Z,6.09
2023-03-26T21:54:33.823Z,6.08
2023-03-26T21:57:11.142Z,6.04
2023-03-26T21:59:42.231Z,6.00
2023-03-26T22:02:27.220Z,5.97
2023-03-26T22:05:02.357Z,6.01
2023-03-26T22:07:41.244Z,6.01
2023-03-26T22:10:09.444Z,6.03
2023-03-26T22:12:37.723Z,6.06
2023-03-26T22:15:06.831Z,6.10
2023-03-26T22:17:35.864Z,6.12
2023-03-26T22:20:07.474Z,6.13
2023-03-26T22:22:35.584Z,6.14
2023-03-26T22:25:04.644Z,6.14
2023-03-26T22:27:32.771Z,6.13
2023-03-26T22:30:14.482Z,6.13
2023-03-26T22:32:46.004Z,6.15
2023-03-26T22:35:14.780Z,6.19
2023-03-26T22:37:43.676Z,6.20
2023-03-26T22:40:15.409Z,6.20
2023-03-26T22:42:44.275Z,6.20
2023-03-26T22:45:12.800Z,6.18
2023-03-26T22:47:41.026Z,6.18
2023-03-26T22:50:10.248Z,6.19
2023-03-26T22:52:40.776Z,6.18
2023-03-26T22:55:11.181Z,6.20
2023-03-26T22:57:39.969Z,6.20
2023-03-26T23:00:16.524Z,6.20
2023-03-26T23:02:45.493Z,6.18
2023-03-26T23:05:14.783Z,6.17
2023-03-26T23:07:43.877Z,6.14
2023-03-26T23:10:12.445Z,6.07
2023-03-26T23:12:41.763Z,6.01
2023-03-26T23:15:11.107Z,5.98
2023-03-26T23:17:39.663Z,5.99
2023-03-26T23:20:15.461Z,6.06
2023-03-26T23:22:44.417Z,6.03
2023-03-26T23:25:12.647Z,6.05
2023-03-26T23:27:41.636Z,6.05
2023-03-26T23:30:11.051Z,6.06
2023-03-26T23:32:39.653Z,6.07
2023-03-26T23:35:08.766Z,6.07
2023-03-26T23:37:37.066Z,6.09
2023-03-26T23:40:09.954Z,6.13
2023-03-26T23:42:38.414Z,6.17
2023-03-26T23:45:08.578Z,6.18
2023-03-26T23:47:37.494Z,6.24
2023-03-26T23:50:06.618Z,6.32
2023-03-26T23:52:34.826Z,6.36
2023-03-26T23:55:03.707Z,6.40
2023-03-26T23:57:32.182Z,6.43
